Time;durP1;ratioP1;P1;durP2;ratioP2;P2;SDS_P1;SDS_P2;PMS_P1;PMS_P2;Temp;Humidity;BMP_temperature;BMP_pressure;BME280_temperature;BME280_humidity;BME280_pressure;Samples;Min_cycle;Max_cycle;Signal;HPM_P1;HPM_P2
2022/09/20 00:01:23;;;;;;;0.00;0.00;;;;;;;18.20;56.67;101954.94;7366012;19;20023;-60
2022/09/20 00:03:55;;;;;;;0.00;0.00;;;;;;;18.19;56.78;101942.66;7364417;19;20007;-56
2022/09/20 00:06:24;;;;;;;0.10;0.10;;;;;;;18.18;57.36;101952.38;7366062;19;20013;-59
2022/09/20 00:08:50;;;;;;;0.00;0.00;;;;;;;18.11;57.20;101950.88;7363272;19;20790;-60
2022/09/20 00:11:18;;;;;;;0.00;0.00;;;;;;;18.15;56.95;101952.50;7364804;19;20010;-60
2022/09/20 00:13:45;;;;;;;0.00;0.00;;;;;;;18.12;57.06;101952.59;7365044;19;20017;-60
2022/09/20 00:16:16;;;;;;;0.00;0.00;;;;;;;18.13;56.38;101957.81;7364296;19;20034;-59
2022/09/20 00:18:42;;;;;;;0.00;0.00;;;;;;;18.11;56.68;101954.38;7363583;19;20011;-60
2022/09/20 00:21:15;;;;;;;0.00;0.00;;;;;;;18.13;56.44;101954.31;7365156;19;20047;-60
2022/09/20 00:23:41;;;;;;;0.00;0.00;;;;;;;18.09;56.81;101952.69;7364151;19;20097;-60
2022/09/20 00:26:06;;;;;;;0.00;0.00;;;;;;;18.08;56.64;101956.25;7364838;19;21275;-60
2022/09/20 00:28:33;;;;;;;0.00;0.00;;;;;;;18.04;57.25;101946.69;7360005;19;20006;-60
2022/09/20 00:30:59;;;;;;;0.00;0.00;;;;;;;18.06;57.21;101947.53;7358305;19;20030;-60
2022/09/20 00:35:06;;;;;;;0.10;0.10;;;;;;;18.05;56.67;101941.38;7363919;19;20555;-60
2022/09/20 00:36:10;;;;;;;0.00;0.00;;;;;;;18.04;57.01;101952.84;7363798;19;20015;-60
2022/09/20 00:38:35;;;;;;;0.10;0.10;;;;;;;18.02;57.34;101952.03;7364652;19;22253;-60
2022/09/20 00:41:01;;;;;;;0.00;0.00;;;;;;;17.97;56.89;101945.19;7361519;19;20006;-61
2022/09/20 00:43:44;;;;;;;0.08;0.08;;;;;;;18.02;56.47;101951.19;7363294;19;20021;-60
2022/09/20 00:46:28;;;;;;;0.00;0.00;;;;;;;18.03;55.93;101953.75;7364399;19;20013;-60
2022/09/20 00:48:58;;;;;;;0.00;0.00;;;;;;;17.96;57.41;101940.81;7363057;19;20017;-60
2022/09/20 00:51:30;;;;;;;0.00;0.00;;;;;;;18.00;56.64;101955.66;7360879;19;20111;-60
2022/09/20 00:53:59;;;;;;;0.00;0.00;;;;;;;17.86;56.98;101938.47;7364148;19;20006;-60
2022/09/20 00:56:31;;;;;;;0.00;0.00;;;;;;;17.96;56.55;101952.25;7363166;19;20006;-60
2022/09/20 00:59:06;;;;;;;0.00;0.00;;;;;;;17.95;56.84;101950.53;7362432;19;20014;-61
2022/09/20 01:01:31;;;;;;;0.00;0.00;;;;;;;17.92;57.48;101955.03;7365045;19;20010;-60
2022/09/20 01:03:58;;;;;;;0.10;0.10;;;;;;;17.81;57.56;101937.75;7362330;19;20014;-60
2022/09/20 01:06:24;;;;;;;0.05;0.05;;;;;;;17.87;57.33;101958.69;7363865;19;20041;-59
2022/09/20 01:08:52;;;;;;;0.00;0.00;;;;;;;17.87;57.36;101961.34;7364943;19;20803;-60
2022/09/20 01:11:18;;;;;;;0.00;0.00;;;;;;;17.84;57.27;101958.81;7363410;19;20034;-60
2022/09/20 01:13:43;;;;;;;0.00;0.00;;;;;;;17.84;57.95;101957.91;7365827;19;20073;-60
2022/09/20 01:16:10;;;;;;;0.00;0.00;;;;;;;17.82;57.77;101960.63;7366652;19;20014;-59
2022/09/20 01:18:37;;;;;;;0.10;0.10;;;;;;;17.74;57.84;101952.09;7363296;19;20026;-58
2022/09/20 01:21:04;;;;;;;0.10;0.10;;;;;;;17.78;57.68;101961.63;7366500;19;20038;-60
2022/09/20 01:23:35;;;;;;;0.00;0.00;;;;;;;17.78;57.91;101964.28;7364935;19;20432;-59
2022/09/20 01:26:06;;;;;;;0.00;0.00;;;;;;;17.77;57.93;101962.56;7367116;19;20788;-60
2022/09/20 01:28:32;;;;;;;0.00;0.00;;;;;;;17.76;58.23;101970.53;7365942;19;20622;-60
2022/09/20 01:31:26;;;;;;;0.10;0.10;;;;;;;17.77;56.38;101962.56;7365236;19;20018;-59
2022/09/20 01:33:59;;;;;;;0.00;0.00;;;;;;;17.74;57.78;101967.94;7264341;19;2004463;-60
2022/09/20 01:36:47;;;;;;;0.03;0.03;;;;;;;17.72;56.72;101961.81;7367179;19;20348;-59
2022/09/20 01:39:31;;;;;;;0.00;0.00;;;;;;;17.69;57.00;101964.56;7361635;19;21068;-60
2022/09/20 01:42:17;;;;;;;0.00;0.00;;;;;;;17.68;56.68;101964.59;7365481;19;20754;-60
2022/09/20 01:45:21;;;;;;;0.00;0.00;;;;;;;17.62;58.40;101965.66;7363857;19;20019;-59
2022/09/20 01:47:58;;;;;;;0.00;0.00;;;;;;;17.63;57.08;101970.03;7258168;19;2004383;-60
2022/09/20 01:50:41;;;;;;;0.00;0.00;;;;;;;17.62;57.03;101963.00;7360656;19;20010;-60
2022/09/20 01:53:44;;;;;;;0.05;0.05;;;;;;;17.59;56.81;101965.78;7364155;19;20014;-60
2022/09/20 01:56:25;;;;;;;0.03;0.03;;;;;;;17.54;58.56;101967.69;7261900;19;2004422;-60
2022/09/20 01:59:16;;;;;;;0.00;0.00;;;;;;;17.55;57.28;101967.63;7353591;19;20077;-60
2022/09/20 02:02:00;;;;;;;0.00;0.00;;;;;;;17.53;58.10;101963.28;7260683;19;2004544;-60
2022/09/20 02:05:00;;;;;;;0.00;0.00;;;;;;;17.54;57.18;101967.69;7363985;19;20021;-59
2022/09/20 02:08:04;;;;;;;0.00;0.00;;;;;;;17.51;57.61;101965.13;7259853;19;2004464;-60
2022/09/20 02:11:09;;;;;;;0.00;0.00;;;;;;;17.49;56.66;101967.84;7260374;19;2004409;-60
2022/09/20 02:13:37;;;;;;;0.00;0.00;;;;;;;17.46;58.38;101972.34;7260544;19;2004599;-60
2022/09/20 02:16:25;;;;;;;0.00;0.00;;;;;;;17.36;58.33;101954.13;7359834;19;20026;-60
2022/09/20 02:19:09;;;;;;;0.00;0.00;;;;;;;17.46;57.64;101967.06;7257777;19;2004414;-60
2022/09/20 02:21:41;;;;;;;0.00;0.00;;;;;;;17.42;58.38;101968.91;7361480;19;20015;-59
2022/09/20 02:24:27;;;;;;;0.00;0.00;;;;;;;17.43;57.41;101968.00;7362312;19;20049;-60
2022/09/20 02:27:07;;;;;;;0.00;0.00;;;;;;;17.42;58.00;101965.41;7364204;19;20011;-60
2022/09/20 02:29:35;;;;;;;0.00;0.00;;;;;;;17.40;59.03;101967.25;7360799;19;20016;-60
2022/09/20 02:32:25;;;;;;;0.00;0.00;;;;;;;17.30;57.75;101943.78;7359861;19;20002;-61
2022/09/20 02:35:45;;;;;;;0.00;0.00;;;;;;;17.43;57.56;101956.56;7361884;19;20817;-59
2022/09/20 02:38:29;;;;;;;0.00;0.00;;;;;;;17.42;58.62;101962.78;7154177;19;2004990;-61
2022/09/20 02:41:40;;;;;;;0.00;0.00;;;;;;;17.42;57.33;101960.13;7362654;19;20010;-60
2022/09/20 02:44:21;;;;;;;0.00;0.00;;;;;;;17.38;58.06;101960.22;7258160;19;2005045;-59
2022/09/20 02:47:16;;;;;;;0.10;0.10;;;;;;;17.41;57.50;101953.13;7360291;19;20007;-60
2022/09/20 02:50:07;;;;;;;0.00;0.00;;;;;;;17.40;57.19;101951.41;7255608;19;2004395;-60
2022/09/20 02:52:49;;;;;;;0.00;0.00;;;;;;;17.37;57.88;101947.94;7256597;19;2004283;-60
2022/09/20 02:55:33;;;;;;;0.00;0.00;;;;;;;17.20;58.30;101923.84;7361821;19;20020;-60
2022/09/20 02:58:01;;;;;;;0.00;0.00;;;;;;;17.31;59.03;101958.69;7361236;19;20011;-60
2022/09/20 03:00:49;;;;;;;0.00;0.00;;;;;;;17.31;58.33;101953.41;7360995;19;20584;-59
2022/09/20 03:03:41;;;;;;;0.00;0.00;;;;;;;17.29;59.13;101957.03;7354014;19;20002;-60
2022/09/20 03:06:29;;;;;;;0.00;0.00;;;;;;;17.26;59.35;101950.06;7257393;19;2004529;-60
2022/09/20 03:09:09;;;;;;;0.10;0.10;;;;;;;17.26;58.50;101949.19;7360292;19;20573;-60
2022/09/20 03:12:10;;;;;;;0.00;0.00;;;;;;;17.26;57.87;101955.31;7361204;19;20047;-60
2022/09/20 03:14:39;;;;;;;0.00;0.00;;;;;;;17.21;59.30;101951.97;7258252;19;2004104;-59
2022/09/20 03:17:14;;;;;;;0.00;0.00;;;;;;;17.19;59.63;101948.53;7360011;19;20629;-60
2022/09/20 03:20:01;;;;;;;0.00;0.00;;;;;;;17.22;58.15;101945.78;7355621;19;20017;-60
2022/09/20 03:22:29;;;;;;;0.00;0.00;;;;;;;17.20;59.35;101939.69;7360297;19;20859;-60
2022/09/20 03:25:29;;;;;;;0.00;0.00;;;;;;;17.20;58.55;101944.97;7360579;19;20014;-61
2022/09/20 03:28:28;;;;;;;0.00;0.00;;;;;;;17.17;57.73;101939.75;7266911;19;2004579;-60
2022/09/20 03:31:24;;;;;;;0.00;0.00;;;;;;;17.14;58.08;101934.59;7267882;19;2004556;-60
2022/09/20 03:33:52;;;;;;;0.00;0.00;;;;;;;17.08;59.56;101924.19;7267553;19;2004486;-61
2022/09/20 03:36:50;;;;;;;0.08;0.08;;;;;;;17.09;58.33;101932.09;7369236;19;21666;-60
2022/09/20 03:39:54;;;;;;;0.00;0.00;;;;;;;17.07;58.35;101933.03;7263901;19;2004504;-60
2022/09/20 03:42:24;;;;;;;0.00;0.00;;;;;;;17.02;59.20;101930.53;7265245;19;2004065;-60
2022/09/20 03:44:52;;;;;;;0.00;0.00;;;;;;;16.99;59.36;101929.78;7367020;19;20112;-60
2022/09/20 03:47:17;;;;;;;0.00;0.00;;;;;;;16.96;59.70;101935.13;7369387;19;20529;-60
2022/09/20 03:49:59;;;;;;;0.00;0.00;;;;;;;16.96;58.94;101930.72;7368237;19;20105;-60
2022/09/20 03:52:56;;;;;;;0.00;0.00;;;;;;;16.89;58.20;101909.84;7368984;19;20615;-59
2022/09/20 03:55:41;;;;;;;0.05;0.05;;;;;;;16.93;59.25;101925.56;7266410;19;2004368;-60
2022/09/20 03:58:21;;;;;;;0.10;0.10;;;;;;;16.92;58.94;101925.56;7363333;19;20021;-60
2022/09/20 04:01:23;;;;;;;0.00;0.00;;;;;;;16.91;59.01;101926.50;7368274;19;20045;-60
2022/09/20 04:04:26;;;;;;;0.00;0.00;;;;;;;16.88;58.89;101919.53;7264261;19;2004518;-60
2022/09/20 04:07:13;;;;;;;0.10;0.10;;;;;;;16.85;59.15;101920.47;7267280;19;2004167;-60
2022/09/20 04:10:05;;;;;;;0.00;0.00;;;;;;;16.84;59.23;101923.19;7367748;19;20007;-60
2022/09/20 04:13:07;;;;;;;0.00;0.00;;;;;;;16.82;58.77;101923.19;7264158;19;2004657;-60
2022/09/20 04:15:57;;;;;;;0.00;0.00;;;;;;;16.79;59.54;101918.03;7265432;19;2004641;-60
2022/09/20 04:18:41;;;;;;;0.00;0.00;;;;;;;16.78;58.92;101921.59;7368295;19;20017;-59
2022/09/20 04:21:22;;;;;;;0.10;0.10;;;;;;;16.75;58.97;101919.03;7367805;19;20048;-59
2022/09/20 04:24:15;;;;;;;0.00;0.00;;;;;;;16.73;59.45;101915.59;7367372;19;20010;-60
2022/09/20 04:26:48;;;;;;;0.00;0.00;;;;;;;16.71;59.70;101916.47;7267711;19;2004276;-60
2022/09/20 04:29:48;;;;;;;0.00;0.00;;;;;;;16.70;59.19;101925.31;7370007;19;20011;-60
2022/09/20 04:32:34;;;;;;;0.00;0.00;;;;;;;16.67;59.36;101915.69;7261619;19;2004279;-59
2022/09/20 04:38:21;;;;;;;0.00;0.00;;;;;;;16.57;60.40;101912.50;7164096;19;2005321;-58
2022/09/20 04:41:27;;;;;;;0.10;0.10;;;;;;;16.58;59.27;101910.72;7365624;19;20010;-60
2022/09/20 04:44:16;;;;;;;0.00;0.00;;;;;;;16.55;59.67;101913.41;7262276;19;2004351;-59
2022/09/20 04:47:15;;;;;;;0.00;0.00;;;;;;;16.53;59.40;101915.25;7366642;19;20018;-60
2022/09/20 04:49:58;;;;;;;0.00;0.00;;;;;;;16.49;60.71;101913.59;7262640;19;2004264;-60
2022/09/20 04:52:48;;;;;;;0.10;0.10;;;;;;;16.47;59.89;101915.41;7366508;19;20014;-60
2022/09/20 04:55:25;;;;;;;0.00;0.00;;;;;;;16.42;61.05;101912.03;7367221;19;20074;-61
2022/09/20 04:58:28;;;;;;;0.00;0.00;;;;;;;16.43;59.90;101913.78;7366783;19;20006;-61
2022/09/20 05:01:31;;;;;;;0.00;0.00;;;;;;;16.40;59.05;101914.72;7263826;19;2004297;-60
2022/09/20 05:04:15;;;;;;;0.00;0.00;;;;;;;16.28;60.81;101915.91;7259509;19;2004398;-59
2022/09/20 05:07:06;;;;;;;0.00;0.00;;;;;;;16.32;59.18;101917.56;7366051;19;20025;-59
2022/09/20 05:09:49;;;;;;;0.00;0.00;;;;;;;16.27;60.54;101913.31;7262594;19;2004545;-59
2022/09/20 05:12:29;;;;;;;0.00;0.00;;;;;;;16.25;60.28;101926.53;7366452;19;20738;-58
2022/09/20 05:15:22;;;;;;;0.00;0.00;;;;;;;16.15;60.00;101911.88;7365411;19;20033;-59
2022/09/20 05:18:21;;;;;;;0.00;0.00;;;;;;;16.19;59.81;101931.13;7264847;19;2004532;-60
2022/09/20 05:21:29;;;;;;;0.00;0.00;;;;;;;16.15;59.74;101925.03;7264908;19;2004266;-60
2022/09/20 05:24:27;;;;;;;0.00;0.00;;;;;;;16.09;60.25;101930.47;7261261;19;2004463;-60
2022/09/20 05:27:01;;;;;;;;;;;;;;;16.06;58.85;101920.00;7266810;19;2004133;-60
2022/09/20 05:29:56;;;;;;;0.00;0.00;;;;;;;15.99;59.62;101923.72;7365574;19;20281;-60
2022/09/20 05:32:33;;;;;;;0.00;0.00;;;;;;;15.94;59.93;101930.88;7264348;19;2004577;-58
2022/09/20 05:35:05;;;;;;;0.00;0.00;;;;;;;15.88;60.03;101920.50;7365308;19;20502;-60
2022/09/20 05:37:57;;;;;;;0.00;0.00;;;;;;;15.83;59.67;101929.38;7365797;19;20042;-60
2022/09/20 05:40:47;;;;;;;0.00;0.00;;;;;;;15.78;59.50;101923.38;7265593;19;2004543;-59
2022/09/20 05:43:23;;;;;;;0.00;0.00;;;;;;;15.72;60.52;101920.88;7263525;19;2004539;-59
2022/09/20 05:46:07;;;;;;;0.00;0.00;;;;;;;15.67;60.60;101933.31;7367049;19;20482;-60
2022/09/20 05:49:14;;;;;;;0.00;0.00;;;;;;;15.65;59.72;101940.34;7365319;19;20421;-59
2022/09/20 05:51:48;;;;;;;0.00;0.00;;;;;;;15.61;60.60;101932.53;7262721;19;2004154;-60
2022/09/20 05:54:45;;;;;;;0.00;0.00;;;;;;;15.52;60.06;101923.09;7365732;19;20065;-60
2022/09/20 05:57:45;;;;;;;0.00;0.00;;;;;;;15.49;59.95;101920.53;7263575;19;2004444;-59
2022/09/20 06:00:20;;;;;;;0.00;0.00;;;;;;;15.58;60.67;101938.75;7260132;19;2004413;-59
2022/09/20 06:02:54;;;;;;;0.00;0.00;;;;;;;15.58;60.49;101933.47;7362132;19;20870;-58
2022/09/20 06:05:32;;;;;;;0.00;0.00;;;;;;;15.56;61.28;101935.25;7360809;19;20047;-59
2022/09/20 06:08:02;;;;;;;0.00;0.00;;;;;;;15.57;61.21;101937.03;7359098;19;20006;-59
2022/09/20 06:10:55;;;;;;;0.00;0.00;;;;;;;15.61;60.60;101933.38;7359366;19;20022;-60
2022/09/20 06:13:42;;;;;;;0.10;0.10;;;;;;;15.64;60.11;101936.00;7260027;19;2004509;-59
2022/09/20 06:16:16;;;;;;;0.00;0.00;;;;;;;15.63;60.87;101936.91;7364965;19;20045;-59
2022/09/20 06:19:04;;;;;;;0.00;0.00;;;;;;;15.66;60.36;101936.84;7363334;19;20659;-60
2022/09/20 06:21:44;;;;;;;0.00;0.00;;;;;;;15.67;60.90;101938.56;7360034;19;20006;-59
2022/09/20 06:24:34;;;;;;;0.00;0.00;;;;;;;15.68;60.85;101935.03;7359397;19;20062;-60
2022/09/20 06:27:05;;;;;;;0.10;0.10;;;;;;;15.69;61.23;101941.16;7361961;19;20418;-59
2022/09/20 06:29:42;;;;;;;0.00;0.00;;;;;;;15.72;60.85;101941.97;7359615;19;21259;-58
2022/09/20 06:32:08;;;;;;;0.00;0.00;;;;;;;15.70;61.57;101933.22;7355884;19;20006;-59
2022/09/20 06:34:34;;;;;;;0.00;0.00;;;;;;;15.72;61.51;101923.53;7359000;19;20010;-59
2022/09/20 06:42:52;;;;;;;0.00;0.00;;;;;;;15.79;61.69;101930.34;7262402;19;2004637;-60
2022/09/20 06:45:18;;;;;;;0.00;0.00;;;;;;;15.75;61.90;101920.78;7357948;19;20018;-59
2022/09/20 06:47:43;;;;;;;0.00;0.00;;;;;;;15.81;61.88;101936.47;7355768;19;20050;-60
2022/09/20 06:50:18;;;;;;;0.00;0.00;;;;;;;15.88;60.74;101936.31;7358688;19;20026;-60
2022/09/20 06:52:46;;;;;;;0.00;0.00;;;;;;;15.87;61.42;101934.59;7357142;19;20006;-60
2022/09/20 06:55:20;;;;;;;0.00;0.00;;;;;;;15.91;61.29;101926.53;7353963;19;20006;-59
2022/09/20 06:57:46;;;;;;;0.00;0.00;;;;;;;15.92;61.74;101927.44;7359279;19;20010;-59
2022/09/20 07:00:14;;;;;;;0.00;0.00;;;;;;;15.86;61.57;101917.03;7351102;19;21097;-59
2022/09/20 07:02:41;;;;;;;0.00;0.00;;;;;;;15.85;61.38;101908.25;7368031;19;20007;-59
2022/09/20 07:05:13;;;;;;;0.10;0.10;;;;;;;16.04;61.17;101932.38;7367894;19;20034;-60
2022/09/20 07:07:38;;;;;;;0.10;0.10;;;;;;;16.01;61.56;101927.16;7368564;19;20097;-60
2022/09/20 07:10:04;;;;;;;0.00;0.00;;;;;;;16.10;61.39;101932.22;7368915;19;20082;-60
2022/09/20 07:12:32;;;;;;;0.10;0.10;;;;;;;16.14;61.55;101939.13;7368031;19;20928;-59
2022/09/20 07:14:57;;;;;;;0.00;0.00;;;;;;;16.18;61.71;101938.16;7369018;19;20030;-60
2022/09/20 07:17:23;;;;;;;0.00;0.00;;;;;;;16.24;61.45;101942.41;7366649;19;20341;-58
2022/09/20 07:19:48;;;;;;;0.00;0.00;;;;;;;16.29;61.43;101938.72;7368911;19;20047;-59
2022/09/20 07:22:13;;;;;;;0.10;0.10;;;;;;;16.35;61.70;101949.09;7367562;19;20027;-57
2022/09/20 07:24:40;;;;;;;0.00;0.00;;;;;;;16.41;61.35;101941.94;7369218;19;23060;-60
2022/09/20 07:27:05;;;;;;;0.00;0.00;;;;;;;16.47;61.46;101949.66;7369310;19;20006;-59
2022/09/20 07:29:31;;;;;;;0.03;0.03;;;;;;;16.41;61.49;101928.75;7368083;19;22574;-60
2022/09/20 07:31:57;;;;;;;0.00;0.00;;;;;;;16.57;61.37;101956.44;7364361;19;20671;-59
2022/09/20 07:34:23;;;;;;;0.05;0.05;;;;;;;16.61;61.45;101951.03;7368059;19;20026;-59
2022/09/20 07:36:50;;;;;;;0.00;0.00;;;;;;;16.67;61.11;101949.97;7363941;19;20009;-59
2022/09/20 07:39:16;;;;;;;0.00;0.00;;;;;;;16.72;61.16;101956.03;7364950;19;20074;-59
2022/09/20 07:41:45;;;;;;;0.00;0.00;;;;;;;16.77;61.04;101956.75;7362671;19;21015;-59
2022/09/20 07:44:20;;;;;;;0.03;0.03;;;;;;;16.82;60.86;101956.63;7366662;19;20013;-60
2022/09/20 07:46:52;;;;;;;0.08;0.08;;;;;;;16.91;60.75;101952.88;7367186;19;20065;-59
2022/09/20 07:49:19;;;;;;;0.03;0.03;;;;;;;16.95;60.71;101950.09;7366491;19;20466;-58
2022/09/20 07:51:44;;;;;;;0.00;0.00;;;;;;;17.02;60.87;101953.41;7366569;19;20612;-58
2022/09/20 07:54:10;;;;;;;0.10;0.10;;;;;;;17.08;60.93;101966.44;7367685;19;20006;-60
2022/09/20 07:56:35;;;;;;;0.00;0.00;;;;;;;17.15;60.72;101962.72;7366306;19;20035;-58
2022/09/20 07:59:00;;;;;;;0.00;0.00;;;;;;;17.23;60.70;101960.69;7363857;19;20014;-60
2022/09/20 08:01:26;;;;;;;0.00;0.00;;;;;;;17.31;60.51;101963.13;7364992;19;20817;-60
2022/09/20 08:03:52;;;;;;;0.00;0.00;;;;;;;17.31;60.43;101948.13;7365195;19;20018;-60
2022/09/20 08:06:20;;;;;;;0.00;0.00;;;;;;;17.47;60.47;101966.13;7364931;19;20021;-59
2022/09/20 08:08:46;;;;;;;0.00;0.00;;;;;;;17.54;60.21;101959.78;7363657;19;20011;-59
2022/09/20 08:11:16;;;;;;;0.00;0.00;;;;;;;17.63;59.89;101970.88;7364438;19;22100;-58
2022/09/20 08:13:46;;;;;;;0.00;0.00;;;;;;;17.57;60.06;101944.66;7362052;19;20013;-60
2022/09/20 08:16:12;;;;;;;0.00;0.00;;;;;;;17.72;59.54;101975.00;7362911;19;20014;-60
2022/09/20 08:18:38;;;;;;;0.00;0.00;;;;;;;17.76;59.43;101966.13;7363689;19;20010;-60
2022/09/20 08:21:05;;;;;;;0.00;0.00;;;;;;;17.84;59.53;101985.25;7366336;19;20455;-59
2022/09/20 08:23:39;;;;;;;0.00;0.00;;;;;;;17.92;59.07;101976.19;7365478;19;20032;-59
2022/09/20 08:26:06;;;;;;;0.10;0.10;;;;;;;17.95;59.08;101976.09;7365828;19;20010;-59
2022/09/20 08:28:32;;;;;;;0.00;0.00;;;;;;;17.99;59.18;101975.06;7365097;19;20022;-60
2022/09/20 08:31:09;;;;;;;0.00;0.00;;;;;;;18.09;58.87;101976.47;7365451;19;20030;-60
2022/09/20 08:33:38;;;;;;;0.10;0.10;;;;;;;18.09;58.72;101976.47;7364303;19;20025;-59
2022/09/20 08:36:05;;;;;;;0.00;0.00;;;;;;;18.14;58.92;101971.91;7358308;19;20577;-59
2022/09/20 08:38:32;;;;;;;0.00;0.00;;;;;;;18.18;58.86;101970.88;7362546;19;20026;-57
2022/09/20 08:41:03;;;;;;;0.10;0.10;;;;;;;18.28;58.09;101969.66;7364162;19;20574;-60
2022/09/20 08:43:34;;;;;;;0.00;0.00;;;;;;;18.36;58.30;101975.53;7364461;19;21140;-59
2022/09/20 08:46:03;;;;;;;0.00;0.00;;;;;;;18.41;58.06;101968.31;7362708;19;20553;-60
2022/09/20 08:48:32;;;;;;;0.00;0.00;;;;;;;18.51;58.18;101975.94;7364824;19;20015;-59
2022/09/20 08:51:00;;;;;;;0.10;0.10;;;;;;;18.56;58.34;101968.69;7363131;19;20042;-59
2022/09/20 08:53:27;;;;;;;0.10;0.10;;;;;;;18.69;58.32;101974.44;7367298;19;20014;-59
2022/09/20 08:55:55;;;;;;;0.03;0.03;;;;;;;18.81;57.93;101974.84;7363256;19;20010;-60
2022/09/20 08:58:20;;;;;;;;;;;;;;;19.06;58.03;101980.09;7363164;19;20014;-60
2022/09/20 09:00:46;;;;;;;0.00;0.00;;;;;;;19.10;57.19;101980.81;7362679;19;19914;-60
2022/09/20 09:03:15;;;;;;;0.00;0.00;;;;;;;19.21;57.47;101977.75;7359394;19;20015;-59
2022/09/20 09:05:51;;;;;;;0.00;0.00;;;;;;;19.28;56.89;101980.13;7363369;19;20023;-60
2022/09/20 09:08:20;;;;;;;0.10;0.10;;;;;;;19.30;56.68;101982.72;7363163;19;20006;-58
2022/09/20 09:11:09;;;;;;;0.00;0.00;;;;;;;19.41;56.81;101992.00;7363763;19;20070;-60
2022/09/20 09:13:51;;;;;;;0.10;0.10;;;;;;;19.47;56.29;101990.03;7363177;19;20014;-60
2022/09/20 09:16:18;;;;;;;0.00;0.00;;;;;;;19.44;56.72;101991.84;7361161;19;20003;-59
2022/09/20 09:18:45;;;;;;;0.08;0.08;;;;;;;19.51;56.48;101994.25;7362307;19;20025;-59
2022/09/20 09:21:21;;;;;;;;;;;;;;;19.67;56.62;101987.47;7360353;19;20006;-59
2022/09/20 09:24:02;;;;;;;0.00;0.00;;;;;;;19.71;55.92;101999.66;7358483;19;19914;-59
2022/09/20 09:26:35;;;;;;;0.00;0.00;;;;;;;19.76;54.96;102000.34;7360398;19;20570;-59
2022/09/20 09:29:17;;;;;;;0.00;0.00;;;;;;;19.80;55.34;102003.72;7350653;19;20021;-58
2022/09/20 09:31:48;;;;;;;0.10;0.10;;;;;;;19.80;55.38;102004.59;7359269;19;20035;-60
2022/09/20 09:34:32;;;;;;;0.00;0.00;;;;;;;19.86;55.57;102001.69;7357122;19;20009;-58
2022/09/20 09:36:58;;;;;;;0.00;0.00;;;;;;;19.84;55.22;102010.66;7360353;19;19998;-60
2022/09/20 09:39:34;;;;;;;0.08;0.08;;;;;;;19.91;55.39;102006.81;7361152;19;20017;-58
2022/09/20 09:42:19;;;;;;;0.00;0.00;;;;;;;19.95;55.46;101990.72;7360011;19;20015;-59
2022/09/20 09:44:49;;;;;;;0.05;0.05;;;;;;;20.05;54.14;102000.94;7360906;19;20480;-58
2022/09/20 09:47:27;;;;;;;0.08;0.08;;;;;;;20.20;54.72;102003.81;7360036;19;20045;-60
2022/09/20 09:49:58;;;;;;;0.00;0.00;;;;;;;20.25;53.96;102000.97;7359388;19;20018;-59
2022/09/20 09:52:26;;;;;;;0.00;0.00;;;;;;;20.30;53.12;101998.97;7352999;19;20010;-58
2022/09/20 09:54:58;;;;;;;0.00;0.00;;;;;;;20.39;52.66;101998.59;7354904;19;20021;-59
2022/09/20 09:58:02;;;;;;;0.10;0.10;;;;;;;20.53;53.90;101998.03;7355041;19;20017;-58
2022/09/20 10:00:30;;;;;;;0.10;0.10;;;;;;;20.56;51.90;102000.53;7250562;19;2004354;-59
2022/09/20 10:03:06;;;;;;;0.00;0.00;;;;;;;20.67;51.92;101992.94;7353782;19;20014;-57
2022/09/20 10:05:46;;;;;;;0.00;0.00;;;;;;;20.78;52.57;101989.81;7360390;19;20410;-59
2022/09/20 10:08:29;;;;;;;0.00;0.00;;;;;;;20.84;51.32;101994.88;7361110;19;20003;-60
2022/09/20 10:11:22;;;;;;;0.00;0.00;;;;;;;20.94;51.98;101996.19;7361335;19;20100;-59
2022/09/20 10:14:18;;;;;;;0.10;0.10;;;;;;;21.04;52.22;101991.31;7260687;19;2004482;-59
2022/09/20 10:16:58;;;;;;;0.10;0.10;;;;;;;21.10;50.85;102000.78;7254100;19;2004616;-59
2022/09/20 10:19:45;;;;;;;0.00;0.00;;;;;;;21.34;52.42;101998.78;7355226;19;20014;-59
2022/09/20 10:22:10;;;;;;;0.08;0.08;;;;;;;21.37;49.50;101999.53;7357934;19;20378;-61
2022/09/20 10:24:58;;;;;;;0.10;0.10;;;;;;;21.59;51.01;102002.00;7359389;19;20014;-59
2022/09/20 10:27:40;;;;;;;0.08;0.08;;;;;;;21.67;50.70;102005.16;7262217;19;2004417;-59
2022/09/20 10:30:19;;;;;;;0.00;0.00;;;;;;;21.79;50.35;102011.69;7362590;19;20115;-59
2022/09/20 10:33:31;;;;;;;0.00;0.00;;;;;;;21.91;50.45;102005.78;7358717;19;20006;-59
2022/09/20 10:36:03;;;;;;;0.00;0.00;;;;;;;22.00;49.83;102009.78;7257572;19;2004502;-59
2022/09/20 10:38:50;;;;;;;0.00;0.00;;;;;;;22.11;50.18;102011.94;7362541;19;20010;-60
2022/09/20 10:45:26;;;;;;;0.00;0.00;;;;;;;22.33;49.76;102007.25;7155081;19;2004521;-58
2022/09/20 10:47:58;;;;;;;0.00;0.00;;;;;;;22.39;48.45;101993.59;7254387;19;2004411;-60
2022/09/20 10:50:47;;;;;;;0.00;0.00;;;;;;;22.57;49.51;101998.94;7358634;19;20011;-58
2022/09/20 10:53:47;;;;;;;0.10;0.10;;;;;;;22.69;49.04;101992.94;7360506;19;20035;-60
2022/09/20 10:56:34;;;;;;;0.00;0.00;;;;;;;22.80;48.57;101979.91;7259483;19;2003969;-60
2022/09/20 10:59:09;;;;;;;0.00;0.00;;;;;;;22.92;46.06;101991.78;7351918;19;20750;-60
2022/09/20 11:01:37;;;;;;;0.10;0.10;;;;;;;23.09;46.90;101996.16;7362252;19;20015;-60
2022/09/20 11:04:24;;;;;;;0.00;0.00;;;;;;;23.18;46.64;101990.34;7357931;19;20352;-60
2022/09/20 11:07:25;;;;;;;0.10;0.10;;;;;;;23.38;47.80;101998.09;7362600;19;20025;-60
2022/09/20 11:10:03;;;;;;;0.00;0.00;;;;;;;23.41;46.53;101991.72;7260342;19;2004221;-60
2022/09/20 11:12:31;;;;;;;0.00;0.00;;;;;;;23.43;45.40;101989.84;7359450;19;20011;-60
2022/09/20 11:15:03;;;;;;;0.00;0.00;;;;;;;23.42;45.65;101980.97;7360813;19;20007;-59
2022/09/20 11:17:42;;;;;;;0.10;0.10;;;;;;;23.58;45.94;101982.78;7360368;19;20039;-60
2022/09/20 11:20:28;;;;;;;0.00;0.00;;;;;;;23.66;46.51;101986.75;7360862;19;20031;-59
2022/09/20 11:23:17;;;;;;;0.00;0.00;;;;;;;23.76;46.74;101992.41;7361019;19;20041;-60
2022/09/20 11:25:55;;;;;;;0.10;0.10;;;;;;;23.77;45.77;101983.44;7361024;19;20831;-60
2022/09/20 11:28:38;;;;;;;0.00;0.00;;;;;;;23.90;45.94;101988.94;7361876;19;20006;-59
2022/09/20 11:31:08;;;;;;;0.05;0.05;;;;;;;23.94;45.13;101986.00;7358996;19;20017;-59
2022/09/20 11:33:43;;;;;;;0.10;0.10;;;;;;;24.02;44.74;101983.75;7362180;19;20888;-60
2022/09/20 11:36:29;;;;;;;0.10;0.10;;;;;;;24.12;45.54;101968.03;7359433;19;20018;-58
2022/09/20 11:39:09;;;;;;;0.10;0.10;;;;;;;24.24;44.79;101977.16;7360343;19;20017;-60
2022/09/20 11:41:35;;;;;;;0.00;0.00;;;;;;;24.31;43.48;101981.16;7361866;19;20010;-60
2022/09/20 11:44:15;;;;;;;0.03;0.03;;;;;;;24.53;44.75;101975.41;7360919;19;21219;-58
2022/09/20 11:46:44;;;;;;;0.10;0.10;;;;;;;24.58;41.38;101976.84;7360426;19;20038;-60
2022/09/20 11:49:26;;;;;;;0.03;0.03;;;;;;;24.82;43.79;101973.59;7365859;19;20006;-59
2022/09/20 11:52:36;;;;;;;0.10;0.10;;;;;;;24.97;44.11;101969.97;7365430;19;20340;-60
2022/09/20 11:55:27;;;;;;;0.10;0.10;;;;;;;25.13;43.86;101971.69;7255029;19;2004292;-59
2022/09/20 11:58:07;;;;;;;0.10;0.10;;;;;;;25.29;42.92;101964.41;7365300;19;20006;-59
2022/09/20 12:00:35;;;;;;;0.00;0.00;;;;;;;25.39;41.76;101957.50;7361677;19;20407;-60
2022/09/20 12:03:03;;;;;;;0.10;0.10;;;;;;;25.60;41.07;101969.50;7362329;19;20649;-60
2022/09/20 12:05:38;;;;;;;0.10;0.10;;;;;;;25.89;42.19;101972.06;7366096;19;23121;-59
2022/09/20 12:08:20;;;;;;;0.00;0.00;;;;;;;26.18;42.06;101961.22;7365436;19;20002;-59
2022/09/20 12:11:02;;;;;;;0.10;0.10;;;;;;;26.48;41.48;101947.53;7362002;19;20011;-59
2022/09/20 12:13:30;;;;;;;0.10;0.10;;;;;;;26.80;38.20;101955.97;7361753;19;20092;-59
2022/09/20 12:16:33;;;;;;;0.00;0.00;;;;;;;27.32;41.43;101955.78;7360971;19;20006;-60
2022/09/20 12:18:58;;;;;;;0.10;0.10;;;;;;;27.64;38.88;101961.44;7262256;19;2003954;-59
2022/09/20 12:21:24;;;;;;;0.10;0.10;;;;;;;28.08;35.59;101954.56;7360471;19;20594;-59
2022/09/20 12:23:55;;;;;;;0.00;0.00;;;;;;;28.47;37.95;101948.91;7358600;19;20066;-59
2022/09/20 12:26:20;;;;;;;0.00;0.00;;;;;;;28.59;36.59;101943.44;7357903;19;20015;-58